Dover, Kentucky
Current Conditions -  °F | °C
As of 11:15 AM on Tuesday 21 Oct 2014 (Local Time) from KFGX Reporting Station
Overcast Overcast  
Wind Chill: 11°   Ceiling: 2200
Heat Index: 11°   Visibility: 10mi
Dew Point:   Wind: 8mph
Humidity: 73%   Direction: 330°NNW
Pressure: 30.03"   Gusts: 16mph
Location:  38.76°N, 83.88°W
Report Text: KFGX 211515Z AUTO 33007G14KT 300V360 10SM BKN022 OVC060 11/07 A3003 RMK AO2 T01130066
Loading
Personal Weather Stations






























Interactive Weather Map
Tropical Storm Tracking
New forecast layout! Learn more

10-Day Weather Forecast

Advertisements
Track Severe Weather on mobile